sensor_id;sensor_type;location;lat;lon;timestamp;temperature;humidity
40738;DHT22;54759;48.094;-1.628;2023-05-10T00:01:02;22.40;51.40
40738;DHT22;54759;48.094;-1.628;2023-05-10T00:04:03;22.40;51.30
40738;DHT22;54759;48.094;-1.628;2023-05-10T00:07:05;22.50;51.40
40738;DHT22;54759;48.094;-1.628;2023-05-10T00:10:08;22.50;51.20
40738;DHT22;54759;48.094;-1.628;2023-05-10T00:13:14;22.40;51.00
40738;DHT22;54759;48.094;-1.628;2023-05-10T00:16:15;22.50;51.00
40738;DHT22;54759;48.094;-1.628;2023-05-10T00:19:17;22.40;51.00
40738;DHT22;54759;48.094;-1.628;2023-05-10T00:22:21;22.40;51.00
40738;DHT22;54759;48.094;-1.628;2023-05-10T00:25:23;22.30;51.10
40738;DHT22;54759;48.094;-1.628;2023-05-10T00:28:27;22.30;51.50
40738;DHT22;54759;48.094;-1.628;2023-05-10T00:31:28;22.40;50.90
40738;DHT22;54759;48.094;-1.628;2023-05-10T00:34:32;22.40;50.90
40738;DHT22;54759;48.094;-1.628;2023-05-10T00:37:33;21.90;50.60
40738;DHT22;54759;48.094;-1.628;2023-05-10T00:40:36;22.40;50.70
40738;DHT22;54759;48.094;-1.628;2023-05-10T00:43:41;22.30;50.70
40738;DHT22;54759;48.094;-1.628;2023-05-10T00:46:42;22.30;50.80
40738;DHT22;54759;48.094;-1.628;2023-05-10T00:49:47;22.20;51.00
40738;DHT22;54759;48.094;-1.628;2023-05-10T00:52:48;22.30;50.90
40738;DHT22;54759;48.094;-1.628;2023-05-10T00:55:51;22.40;50.80
40738;DHT22;54759;48.094;-1.628;2023-05-10T00:58:54;22.10;49.60
40738;DHT22;54759;48.094;-1.628;2023-05-10T01:01:57;21.90;50.60
40738;DHT22;54759;48.094;-1.628;2023-05-10T01:04:59;22.30;50.90
40738;DHT22;54759;48.094;-1.628;2023-05-10T01:08:01;22.20;50.80
40738;DHT22;54759;48.094;-1.628;2023-05-10T01:11:05;22.40;50.60
40738;DHT22;54759;48.094;-1.628;2023-05-10T01:14:08;22.30;50.90
40738;DHT22;54759;48.094;-1.628;2023-05-10T01:17:11;22.30;50.80
40738;DHT22;54759;48.094;-1.628;2023-05-10T01:20:14;22.10;50.70
40738;DHT22;54759;48.094;-1.628;2023-05-10T01:23:30;22.20;50.70
40738;DHT22;54759;48.094;-1.628;2023-05-10T01:27:02;22.00;50.60
40738;DHT22;54759;48.094;-1.628;2023-05-10T01:30:22;22.30;50.80
40738;DHT22;54759;48.094;-1.628;2023-05-10T01:33:35;22.10;50.70
40738;DHT22;54759;48.094;-1.628;2023-05-10T01:36:43;22.30;50.80
40738;DHT22;54759;48.094;-1.628;2023-05-10T01:39:52;22.20;50.80
40738;DHT22;54759;48.094;-1.628;2023-05-10T01:42:58;22.20;50.80
40738;DHT22;54759;48.094;-1.628;2023-05-10T01:46:07;22.10;50.80
40738;DHT22;54759;48.094;-1.628;2023-05-10T01:49:19;22.10;50.80
40738;DHT22;54759;48.094;-1.628;2023-05-10T01:52:26;22.10;50.80
40738;DHT22;54759;48.094;-1.628;2023-05-10T01:55:35;22.10;50.80
40738;DHT22;54759;48.094;-1.628;2023-05-10T01:58:39;22.10;50.80
40738;DHT22;54759;48.094;-1.628;2023-05-10T02:01:43;22.00;50.80
40738;DHT22;54759;48.094;-1.628;2023-05-10T02:04:47;22.20;50.90
40738;DHT22;54759;48.094;-1.628;2023-05-10T02:07:52;22.20;51.00
40738;DHT22;54759;48.094;-1.628;2023-05-10T02:10:55;21.90;51.00
40738;DHT22;54759;48.094;-1.628;2023-05-10T02:13:58;22.10;51.00
40738;DHT22;54759;48.094;-1.628;2023-05-10T02:17:04;22.10;51.00
40738;DHT22;54759;48.094;-1.628;2023-05-10T02:20:08;22.10;51.00
40738;DHT22;54759;48.094;-1.628;2023-05-10T02:23:11;22.10;51.00
40738;DHT22;54759;48.094;-1.628;2023-05-10T02:26:14;22.20;51.20
40738;DHT22;54759;48.094;-1.628;2023-05-10T02:29:16;22.20;51.30
40738;DHT22;54759;48.094;-1.628;2023-05-10T02:32:19;22.10;51.20
40738;DHT22;54759;48.094;-1.628;2023-05-10T02:35:26;21.70;51.00
40738;DHT22;54759;48.094;-1.628;2023-05-10T02:38:28;22.00;51.10
40738;DHT22;54759;48.094;-1.628;2023-05-10T02:41:33;22.10;51.20
40738;DHT22;54759;48.094;-1.628;2023-05-10T02:44:36;22.00;51.20
40738;DHT22;54759;48.094;-1.628;2023-05-10T02:47:38;22.10;51.20
40738;DHT22;54759;48.094;-1.628;2023-05-10T02:50:43;22.00;51.20
40738;DHT22;54759;48.094;-1.628;2023-05-10T02:53:46;21.90;51.20
40738;DHT22;54759;48.094;-1.628;2023-05-10T02:56:53;22.10;51.30
40738;DHT22;54759;48.094;-1.628;2023-05-10T02:59:58;21.90;51.20
40738;DHT22;54759;48.094;-1.628;2023-05-10T03:03:01;22.00;51.40
40738;DHT22;54759;48.094;-1.628;2023-05-10T03:06:04;21.90;51.40
40738;DHT22;54759;48.094;-1.628;2023-05-10T03:09:06;22.00;51.40
40738;DHT22;54759;48.094;-1.628;2023-05-10T03:12:14;21.90;51.40
40738;DHT22;54759;48.094;-1.628;2023-05-10T03:15:29;22.00;51.40
40738;DHT22;54759;48.094;-1.628;2023-05-10T03:18:40;21.80;51.30
40738;DHT22;54759;48.094;-1.628;2023-05-10T03:21:49;22.00;51.40
40738;DHT22;54759;48.094;-1.628;2023-05-10T03:24:53;22.10;51.40
40738;DHT22;54759;48.094;-1.628;2023-05-10T03:27:57;21.80;51.30
40738;DHT22;54759;48.094;-1.628;2023-05-10T03:33:46;21.70;46.80
40738;DHT22;54759;48.094;-1.628;2023-05-10T03:36:47;22.00;47.20
40738;DHT22;54759;48.094;-1.628;2023-05-10T03:39:49;21.80;47.20
40738;DHT22;54759;48.094;-1.628;2023-05-10T03:42:52;21.80;47.40
40738;DHT22;54759;48.094;-1.628;2023-05-10T03:45:53;21.90;47.30
40738;DHT22;54759;48.094;-1.628;2023-05-10T03:48:58;22.10;47.30
40738;DHT22;54759;48.094;-1.628;2023-05-10T03:51:59;22.10;47.30
40738;DHT22;54759;48.094;-1.628;2023-05-10T03:55:01;21.90;47.30
40738;DHT22;54759;48.094;-1.628;2023-05-10T03:58:04;21.90;47.30
40738;DHT22;54759;48.094;-1.628;2023-05-10T04:01:06;22.00;47.40
40738;DHT22;54759;48.094;-1.628;2023-05-10T04:04:08;22.00;47.40
40738;DHT22;54759;48.094;-1.628;2023-05-10T04:07:10;21.90;47.60
40738;DHT22;54759;48.094;-1.628;2023-05-10T04:10:11;21.50;47.60
40738;DHT22;54759;48.094;-1.628;2023-05-10T04:13:14;21.90;47.60
40738;DHT22;54759;48.094;-1.628;2023-05-10T04:16:16;21.90;47.60
40738;DHT22;54759;48.094;-1.628;2023-05-10T04:19:18;21.40;47.20
40738;DHT22;54759;48.094;-1.628;2023-05-10T04:22:20;21.80;47.60
40738;DHT22;54759;48.094;-1.628;2023-05-10T04:25:21;21.50;47.30
40738;DHT22;54759;48.094;-1.628;2023-05-10T04:28:23;21.70;47.50
40738;DHT22;54759;48.094;-1.628;2023-05-10T04:31:24;21.60;47.50
40738;DHT22;54759;48.094;-1.628;2023-05-10T04:34:26;22.00;47.70
40738;DHT22;54759;48.094;-1.628;2023-05-10T04:37:27;21.70;47.80
40738;DHT22;54759;48.094;-1.628;2023-05-10T04:40:29;21.40;47.70
40738;DHT22;54759;48.094;-1.628;2023-05-10T04:43:30;21.70;47.60
40738;DHT22;54759;48.094;-1.628;2023-05-10T04:46:35;21.90;47.80
40738;DHT22;54759;48.094;-1.628;2023-05-10T04:49:37;21.90;47.70
40738;DHT22;54759;48.094;-1.628;2023-05-10T04:52:38;21.90;47.90
40738;DHT22;54759;48.094;-1.628;2023-05-10T04:55:40;21.80;47.90
40738;DHT22;54759;48.094;-1.628;2023-05-10T04:58:41;21.90;47.90
40738;DHT22;54759;48.094;-1.628;2023-05-10T05:01:45;21.80;48.10
40738;DHT22;54759;48.094;-1.628;2023-05-10T05:04:47;21.70;47.80
40738;DHT22;54759;48.094;-1.628;2023-05-10T05:07:48;21.60;47.80
40738;DHT22;54759;48.094;-1.628;2023-05-10T05:10:50;21.90;48.10
40738;DHT22;54759;48.094;-1.628;2023-05-10T05:13:51;21.50;47.80
40738;DHT22;54759;48.094;-1.628;2023-05-10T05:16:53;21.80;48.10
40738;DHT22;54759;48.094;-1.628;2023-05-10T05:19:55;21.80;48.00
40738;DHT22;54759;48.094;-1.628;2023-05-10T05:22:57;21.80;48.10
40738;DHT22;54759;48.094;-1.628;2023-05-10T05:25:58;21.80;48.00
40738;DHT22;54759;48.094;-1.628;2023-05-10T05:29:00;22.10;48.50
40738;DHT22;54759;48.094;-1.628;2023-05-10T05:32:01;21.90;48.10
40738;DHT22;54759;48.094;-1.628;2023-05-10T05:35:07;21.90;48.30
40738;DHT22;54759;48.094;-1.628;2023-05-10T05:38:08;21.40;48.00
40738;DHT22;54759;48.094;-1.628;2023-05-10T05:41:10;21.80;48.30
40738;DHT22;54759;48.094;-1.628;2023-05-10T05:44:11;21.90;48.50
40738;DHT22;54759;48.094;-1.628;2023-05-10T05:47:13;21.40;48.50
40738;DHT22;54759;48.094;-1.628;2023-05-10T05:50:15;21.90;48.40
40738;DHT22;54759;48.094;-1.628;2023-05-10T05:53:18;21.90;48.80
40738;DHT22;54759;48.094;-1.628;2023-05-10T05:56:22;21.90;48.70
40738;DHT22;54759;48.094;-1.628;2023-05-10T05:59:25;21.90;48.60
40738;DHT22;54759;48.094;-1.628;2023-05-10T06:02:29;21.90;48.70
40738;DHT22;54759;48.094;-1.628;2023-05-10T06:05:32;21.80;49.00
40738;DHT22;54759;48.094;-1.628;2023-05-10T06:08:33;21.30;48.60
40738;DHT22;54759;48.094;-1.628;2023-05-10T06:11:34;22.10;49.30
40738;DHT22;54759;48.094;-1.628;2023-05-10T06:14:36;21.50;49.30
40738;DHT22;54759;48.094;-1.628;2023-05-10T06:17:38;21.90;49.30
40738;DHT22;54759;48.094;-1.628;2023-05-10T06:20:41;21.80;49.30
40738;DHT22;54759;48.094;-1.628;2023-05-10T06:23:43;21.60;49.40
40738;DHT22;54759;48.094;-1.628;2023-05-10T06:26:44;21.90;49.80
40738;DHT22;54759;48.094;-1.628;2023-05-10T06:29:46;22.20;50.30
40738;DHT22;54759;48.094;-1.628;2023-05-10T06:32:47;21.90;49.80
40738;DHT22;54759;48.094;-1.628;2023-05-10T06:35:51;21.80;50.20
40738;DHT22;54759;48.094;-1.628;2023-05-10T06:38:52;21.50;49.80
40738;DHT22;54759;48.094;-1.628;2023-05-10T06:41:56;21.80;50.10
40738;DHT22;54759;48.094;-1.628;2023-05-10T06:44:58;21.90;50.20
40738;DHT22;54759;48.094;-1.628;2023-05-10T06:48:00;21.90;50.40
40738;DHT22;54759;48.094;-1.628;2023-05-10T06:51:02;21.80;50.30
40738;DHT22;54759;48.094;-1.628;2023-05-10T06:54:04;21.70;50.50
40738;DHT22;54759;48.094;-1.628;2023-05-10T06:57:05;21.80;50.70
40738;DHT22;54759;48.094;-1.628;2023-05-10T07:00:20;21.40;50.70
40738;DHT22;54759;48.094;-1.628;2023-05-10T07:03:22;21.60;50.60
40738;DHT22;54759;48.094;-1.628;2023-05-10T07:06:30;21.70;51.10
40738;DHT22;54759;48.094;-1.628;2023-05-10T07:09:34;22.10;51.30
40738;DHT22;54759;48.094;-1.628;2023-05-10T07:12:36;22.00;50.90
40738;DHT22;54759;48.094;-1.628;2023-05-10T07:15:37;22.10;51.50
40738;DHT22;54759;48.094;-1.628;2023-05-10T07:18:39;22.00;50.90
40738;DHT22;54759;48.094;-1.628;2023-05-10T07:21:41;22.10;51.00
40738;DHT22;54759;48.094;-1.628;2023-05-10T07:24:44;22.00;51.20
40738;DHT22;54759;48.094;-1.628;2023-05-10T07:27:46;22.10;51.10
40738;DHT22;54759;48.094;-1.628;2023-05-10T07:30:49;22.40;51.40
40738;DHT22;54759;48.094;-1.628;2023-05-10T07:33:51;22.10;52.40
40738;DHT22;54759;48.094;-1.628;2023-05-10T07:36:53;22.10;52.50
40738;DHT22;54759;48.094;-1.628;2023-05-10T07:39:54;22.20;52.60
40738;DHT22;54759;48.094;-1.628;2023-05-10T07:42:57;22.20;52.40
40738;DHT22;54759;48.094;-1.628;2023-05-10T07:46:00;22.30;52.40
40738;DHT22;54759;48.094;-1.628;2023-05-10T07:49:02;22.40;52.50
40738;DHT22;54759;48.094;-1.628;2023-05-10T07:52:05;22.30;52.40
40738;DHT22;54759;48.094;-1.628;2023-05-10T07:55:08;22.00;51.90
40738;DHT22;54759;48.094;-1.628;2023-05-10T07:58:10;22.30;52.00
40738;DHT22;54759;48.094;-1.628;2023-05-10T08:01:11;22.30;52.00
40738;DHT22;54759;48.094;-1.628;2023-05-10T08:04:12;22.00;51.90
40738;DHT22;54759;48.094;-1.628;2023-05-10T08:07:15;21.70;51.70
40738;DHT22;54759;48.094;-1.628;2023-05-10T08:10:16;22.40;51.80
40738;DHT22;54759;48.094;-1.628;2023-05-10T08:13:18;22.50;51.70
40738;DHT22;54759;48.094;-1.628;2023-05-10T08:16:19;22.60;51.70
40738;DHT22;54759;48.094;-1.628;2023-05-10T08:19:21;22.80;52.10
40738;DHT22;54759;48.094;-1.628;2023-05-10T08:22:24;22.50;52.10
40738;DHT22;54759;48.094;-1.628;2023-05-10T08:25:25;22.50;51.70
40738;DHT22;54759;48.094;-1.628;2023-05-10T08:28:27;22.50;52.10
40738;DHT22;54759;48.094;-1.628;2023-05-10T08:31:28;21.70;51.80
40738;DHT22;54759;48.094;-1.628;2023-05-10T08:34:30;22.70;51.90
40738;DHT22;54759;48.094;-1.628;2023-05-10T08:37:32;22.50;52.20
40738;DHT22;54759;48.094;-1.628;2023-05-10T08:40:37;22.30;52.00
40738;DHT22;54759;48.094;-1.628;2023-05-10T08:43:39;22.50;52.10
40738;DHT22;54759;48.094;-1.628;2023-05-10T08:46:46;22.60;52.00
40738;DHT22;54759;48.094;-1.628;2023-05-10T08:49:48;22.50;52.00
40738;DHT22;54759;48.094;-1.628;2023-05-10T08:52:55;22.40;51.70
40738;DHT22;54759;48.094;-1.628;2023-05-10T08:56:00;22.40;51.90
40738;DHT22;54759;48.094;-1.628;2023-05-10T08:59:02;22.50;51.90
40738;DHT22;54759;48.094;-1.628;2023-05-10T09:02:04;22.50;52.20
40738;DHT22;54759;48.094;-1.628;2023-05-10T09:05:07;22.50;52.10
40738;DHT22;54759;48.094;-1.628;2023-05-10T09:08:09;22.50;51.10
40738;DHT22;54759;48.094;-1.628;2023-05-10T09:11:13;22.50;51.10
40738;DHT22;54759;48.094;-1.628;2023-05-10T09:14:15;22.10;51.30
40738;DHT22;54759;48.094;-1.628;2023-05-10T09:17:17;22.60;51.40
40738;DHT22;54759;48.094;-1.628;2023-05-10T09:20:21;22.60;51.10
40738;DHT22;54759;48.094;-1.628;2023-05-10T09:23:25;22.40;50.80
40738;DHT22;54759;48.094;-1.628;2023-05-10T09:26:33;22.60;51.00
40738;DHT22;54759;48.094;-1.628;2023-05-10T09:29:39;22.60;51.00
40738;DHT22;54759;48.094;-1.628;2023-05-10T09:32:42;22.50;50.80
40738;DHT22;54759;48.094;-1.628;2023-05-10T09:35:44;22.70;51.00
40738;DHT22;54759;48.094;-1.628;2023-05-10T09:38:48;22.60;51.20
40738;DHT22;54759;48.094;-1.628;2023-05-10T09:41:50;22.70;51.20
40738;DHT22;54759;48.094;-1.628;2023-05-10T09:44:54;22.70;51.60
40738;DHT22;54759;48.094;-1.628;2023-05-10T09:48:04;22.70;51.40
40738;DHT22;54759;48.094;-1.628;2023-05-10T09:51:07;22.50;51.50
40738;DHT22;54759;48.094;-1.628;2023-05-10T09:54:09;22.60;51.60
40738;DHT22;54759;48.094;-1.628;2023-05-10T09:57:19;22.50;51.80
40738;DHT22;54759;48.094;-1.628;2023-05-10T10:00:22;22.70;51.90
40738;DHT22;54759;48.094;-1.628;2023-05-10T10:03:23;22.60;52.10
40738;DHT22;54759;48.094;-1.628;2023-05-10T10:06:25;22.70;52.30
40738;DHT22;54759;48.094;-1.628;2023-05-10T10:09:32;22.80;52.50
40738;DHT22;54759;48.094;-1.628;2023-05-10T10:12:34;22.50;52.50
40738;DHT22;54759;48.094;-1.628;2023-05-10T10:15:37;22.70;52.70
40738;DHT22;54759;48.094;-1.628;2023-05-10T10:18:42;22.60;52.90
40738;DHT22;54759;48.094;-1.628;2023-05-10T10:21:44;22.90;52.90
40738;DHT22;54759;48.094;-1.628;2023-05-10T10:24:48;22.50;52.80
40738;DHT22;54759;48.094;-1.628;2023-05-10T10:28:02;22.70;53.20
40738;DHT22;54759;48.094;-1.628;2023-05-10T10:31:17;22.80;53.10
40738;DHT22;54759;48.094;-1.628;2023-05-10T10:34:25;22.60;52.60
40738;DHT22;54759;48.094;-1.628;2023-05-10T10:37:42;22.90;52.70
40738;DHT22;54759;48.094;-1.628;2023-05-10T10:40:44;22.80;52.50
40738;DHT22;54759;48.094;-1.628;2023-05-10T10:43:47;22.30;52.20
40738;DHT22;54759;48.094;-1.628;2023-05-10T10:47:00;22.80;52.40
40738;DHT22;54759;48.094;-1.628;2023-05-10T10:50:05;22.80;52.40
40738;DHT22;54759;48.094;-1.628;2023-05-10T10:53:10;22.60;52.20
40738;DHT22;54759;48.094;-1.628;2023-05-10T10:56:13;22.70;52.50
40738;DHT22;54759;48.094;-1.628;2023-05-10T10:59:26;22.40;52.50
40738;DHT22;54759;48.094;-1.628;2023-05-10T11:02:34;22.80;53.70
40738;DHT22;54759;48.094;-1.628;2023-05-10T11:05:38;22.50;53.60
40738;DHT22;54759;48.094;-1.628;2023-05-10T11:08:42;22.80;53.00
40738;DHT22;54759;48.094;-1.628;2023-05-10T11:11:52;23.00;53.30
40738;DHT22;54759;48.094;-1.628;2023-05-10T11:14:57;22.70;53.20
40738;DHT22;54759;48.094;-1.628;2023-05-10T11:17:59;22.90;53.40
40738;DHT22;54759;48.094;-1.628;2023-05-10T11:21:01;22.40;53.10
40738;DHT22;54759;48.094;-1.628;2023-05-10T11:24:13;22.90;53.40
40738;DHT22;54759;48.094;-1.628;2023-05-10T11:27:18;23.00;53.40
40738;DHT22;54759;48.094;-1.628;2023-05-10T11:30:19;22.80;53.90
40738;DHT22;54759;48.094;-1.628;2023-05-10T11:33:24;22.70;53.30
40738;DHT22;54759;48.094;-1.628;2023-05-10T11:36:27;22.90;53.20
40738;DHT22;54759;48.094;-1.628;2023-05-10T11:39:32;23.00;53.70
40738;DHT22;54759;48.094;-1.628;2023-05-10T11:42:36;22.90;53.90
40738;DHT22;54759;48.094;-1.628;2023-05-10T11:45:40;22.60;53.90
40738;DHT22;54759;48.094;-1.628;2023-05-10T11:48:42;22.90;54.20
40738;DHT22;54759;48.094;-1.628;2023-05-10T11:51:44;22.80;54.30
40738;DHT22;54759;48.094;-1.628;2023-05-10T11:54:50;23.00;54.60
40738;DHT22;54759;48.094;-1.628;2023-05-10T11:57:53;22.90;54.60
40738;DHT22;54759;48.094;-1.628;2023-05-10T12:00:57;22.90;54.80
40738;DHT22;54759;48.094;-1.628;2023-05-10T12:04:00;23.00;55.30
40738;DHT22;54759;48.094;-1.628;2023-05-10T12:07:05;22.90;55.30
40738;DHT22;54759;48.094;-1.628;2023-05-10T12:10:07;22.90;55.50
40738;DHT22;54759;48.094;-1.628;2023-05-10T12:13:13;22.90;55.60
40738;DHT22;54759;48.094;-1.628;2023-05-10T12:16:17;22.90;56.00
40738;DHT22;54759;48.094;-1.628;2023-05-10T12:19:20;23.60;56.10
40738;DHT22;54759;48.094;-1.628;2023-05-10T12:22:22;22.10;55.30
40738;DHT22;54759;48.094;-1.628;2023-05-10T12:25:30;23.20;55.90
40738;DHT22;54759;48.094;-1.628;2023-05-10T12:28:33;23.00;55.70
40738;DHT22;54759;48.094;-1.628;2023-05-10T12:31:49;23.00;55.60
40738;DHT22;54759;48.094;-1.628;2023-05-10T12:34:52;23.00;55.60
40738;DHT22;54759;48.094;-1.628;2023-05-10T12:37:54;23.10;55.60
40738;DHT22;54759;48.094;-1.628;2023-05-10T12:40:56;22.60;55.40
40738;DHT22;54759;48.094;-1.628;2023-05-10T12:43:58;22.80;55.60
40738;DHT22;54759;48.094;-1.628;2023-05-10T12:47:02;23.00;55.60
40738;DHT22;54759;48.094;-1.628;2023-05-10T12:50:05;22.80;55.50
40738;DHT22;54759;48.094;-1.628;2023-05-10T12:53:09;22.60;55.30
40738;DHT22;54759;48.094;-1.628;2023-05-10T12:56:11;22.90;55.50
40738;DHT22;54759;48.094;-1.628;2023-05-10T12:59:13;23.00;55.40
40738;DHT22;54759;48.094;-1.628;2023-05-10T13:02:15;23.00;55.60
40738;DHT22;54759;48.094;-1.628;2023-05-10T13:05:20;22.80;55.30
40738;DHT22;54759;48.094;-1.628;2023-05-10T13:08:22;23.20;55.50
40738;DHT22;54759;48.094;-1.628;2023-05-10T13:11:23;22.80;55.40
40738;DHT22;54759;48.094;-1.628;2023-05-10T13:14:26;23.50;55.90
40738;DHT22;54759;48.094;-1.628;2023-05-10T13:17:28;22.90;55.50
40738;DHT22;54759;48.094;-1.628;2023-05-10T13:20:31;22.80;55.90
40738;DHT22;54759;48.094;-1.628;2023-05-10T13:23:33;22.90;55.90
40738;DHT22;54759;48.094;-1.628;2023-05-10T13:26:35;23.10;56.10
40738;DHT22;54759;48.094;-1.628;2023-05-10T13:29:37;23.00;56.60
40738;DHT22;54759;48.094;-1.628;2023-05-10T13:32:45;22.60;56.10
40738;DHT22;54759;48.094;-1.628;2023-05-10T13:35:47;22.90;56.50
40738;DHT22;54759;48.094;-1.628;2023-05-10T13:38:48;23.10;56.70
40738;DHT22;54759;48.094;-1.628;2023-05-10T13:41:50;21.90;56.20
40738;DHT22;54759;48.094;-1.628;2023-05-10T13:44:52;22.90;56.80
40738;DHT22;54759;48.094;-1.628;2023-05-10T13:47:56;23.10;57.20
40738;DHT22;54759;48.094;-1.628;2023-05-10T13:50:58;23.30;57.40
40738;DHT22;54759;48.094;-1.628;2023-05-10T13:54:00;22.90;57.20
40738;DHT22;54759;48.094;-1.628;2023-05-10T13:57:03;23.00;57.10
40738;DHT22;54759;48.094;-1.628;2023-05-10T14:00:06;22.90;56.60
40738;DHT22;54759;48.094;-1.628;2023-05-10T14:03:10;23.10;56.30
40738;DHT22;54759;48.094;-1.628;2023-05-10T14:06:13;22.90;55.80
40738;DHT22;54759;48.094;-1.628;2023-05-10T14:09:14;23.10;55.90
40738;DHT22;54759;48.094;-1.628;2023-05-10T14:12:17;23.00;55.30
40738;DHT22;54759;48.094;-1.628;2023-05-10T14:15:19;23.10;54.90
40738;DHT22;54759;48.094;-1.628;2023-05-10T14:18:21;22.70;54.60
40738;DHT22;54759;48.094;-1.628;2023-05-10T14:21:22;23.10;54.70
40738;DHT22;54759;48.094;-1.628;2023-05-10T14:24:24;23.10;54.40
40738;DHT22;54759;48.094;-1.628;2023-05-10T14:27:28;23.00;54.40
40738;DHT22;54759;48.094;-1.628;2023-05-10T14:30:31;22.90;54.40
40738;DHT22;54759;48.094;-1.628;2023-05-10T14:33:33;23.00;54.60
40738;DHT22;54759;48.094;-1.628;2023-05-10T14:36:35;23.10;54.90
40738;DHT22;54759;48.094;-1.628;2023-05-10T14:39:36;22.00;54.40
40738;DHT22;54759;48.094;-1.628;2023-05-10T14:42:37;22.80;55.00
40738;DHT22;54759;48.094;-1.628;2023-05-10T14:45:40;23.00;55.00
40738;DHT22;54759;48.094;-1.628;2023-05-10T14:48:42;23.00;55.20
40738;DHT22;54759;48.094;-1.628;2023-05-10T14:51:43;23.00;55.30
40738;DHT22;54759;48.094;-1.628;2023-05-10T14:54:46;23.00;55.30
40738;DHT22;54759;48.094;-1.628;2023-05-10T14:57:47;23.20;55.40
40738;DHT22;54759;48.094;-1.628;2023-05-10T15:00:51;23.20;55.50
40738;DHT22;54759;48.094;-1.628;2023-05-10T15:03:53;22.90;55.50
40738;DHT22;54759;48.094;-1.628;2023-05-10T15:06:55;22.90;55.70
40738;DHT22;54759;48.094;-1.628;2023-05-10T15:10:00;23.10;55.90
40738;DHT22;54759;48.094;-1.628;2023-05-10T15:13:03;23.00;55.60
40738;DHT22;54759;48.094;-1.628;2023-05-10T15:16:06;23.30;55.80
40738;DHT22;54759;48.094;-1.628;2023-05-10T15:19:07;23.10;55.60
40738;DHT22;54759;48.094;-1.628;2023-05-10T15:22:09;23.00;55.60
40738;DHT22;54759;48.094;-1.628;2023-05-10T15:25:12;22.70;55.50
40738;DHT22;54759;48.094;-1.628;2023-05-10T15:28:13;23.20;55.90
40738;DHT22;54759;48.094;-1.628;2023-05-10T15:31:15;23.10;55.70
40738;DHT22;54759;48.094;-1.628;2023-05-10T15:34:17;22.70;55.50
40738;DHT22;54759;48.094;-1.628;2023-05-10T15:37:19;23.00;55.60
40738;DHT22;54759;48.094;-1.628;2023-05-10T15:40:20;22.00;55.20
40738;DHT22;54759;48.094;-1.628;2023-05-10T15:43:21;23.10;56.00
40738;DHT22;54759;48.094;-1.628;2023-05-10T15:49:29;23.10;55.50
40738;DHT22;54759;48.094;-1.628;2023-05-10T15:52:34;23.10;55.90
40738;DHT22;54759;48.094;-1.628;2023-05-10T15:55:36;23.10;56.00
40738;DHT22;54759;48.094;-1.628;2023-05-10T15:58:37;22.70;55.80
40738;DHT22;54759;48.094;-1.628;2023-05-10T16:01:40;23.10;56.10
40738;DHT22;54759;48.094;-1.628;2023-05-10T16:04:41;23.10;56.30
40738;DHT22;54759;48.094;-1.628;2023-05-10T16:07:44;23.00;56.30
40738;DHT22;54759;48.094;-1.628;2023-05-10T16:10:46;24.10;56.90
40738;DHT22;54759;48.094;-1.628;2023-05-10T16:13:49;22.90;56.30
40738;DHT22;54759;48.094;-1.628;2023-05-10T16:16:53;22.90;56.50
40738;DHT22;54759;48.094;-1.628;2023-05-10T16:19:55;23.10;56.60
40738;DHT22;54759;48.094;-1.628;2023-05-10T16:22:56;23.00;56.70
40738;DHT22;54759;48.094;-1.628;2023-05-10T16:25:58;23.20;56.90
40738;DHT22;54759;48.094;-1.628;2023-05-10T16:28:59;22.90;56.70
40738;DHT22;54759;48.094;-1.628;2023-05-10T16:32:05;23.10;56.90
40738;DHT22;54759;48.094;-1.628;2023-05-10T16:35:08;22.80;57.00
40738;DHT22;54759;48.094;-1.628;2023-05-10T16:38:09;23.00;57.10
40738;DHT22;54759;48.094;-1.628;2023-05-10T16:41:11;23.10;57.20
40738;DHT22;54759;48.094;-1.628;2023-05-10T16:44:12;22.60;56.90
40738;DHT22;54759;48.094;-1.628;2023-05-10T16:47:17;22.80;57.10
40738;DHT22;54759;48.094;-1.628;2023-05-10T16:50:19;23.10;57.00
40738;DHT22;54759;48.094;-1.628;2023-05-10T16:53:21;22.70;56.90
40738;DHT22;54759;48.094;-1.628;2023-05-10T16:56:23;23.00;57.10
40738;DHT22;54759;48.094;-1.628;2023-05-10T16:59:24;23.10;57.10
40738;DHT22;54759;48.094;-1.628;2023-05-10T17:02:29;23.10;57.40
40738;DHT22;54759;48.094;-1.628;2023-05-10T17:05:31;23.20;57.20
40738;DHT22;54759;48.094;-1.628;2023-05-10T17:08:32;23.60;57.90
40738;DHT22;54759;48.094;-1.628;2023-05-10T17:11:37;23.10;57.50
40738;DHT22;54759;48.094;-1.628;2023-05-10T17:14:39;22.90;57.40
40738;DHT22;54759;48.094;-1.628;2023-05-10T17:17:41;23.10;57.60
40738;DHT22;54759;48.094;-1.628;2023-05-10T17:20:43;23.10;57.80
40738;DHT22;54759;48.094;-1.628;2023-05-10T17:23:45;23.00;57.60
40738;DHT22;54759;48.094;-1.628;2023-05-10T17:26:46;22.80;57.60
40738;DHT22;54759;48.094;-1.628;2023-05-10T17:29:48;23.00;57.80
40738;DHT22;54759;48.094;-1.628;2023-05-10T17:32:50;23.10;58.00
40738;DHT22;54759;48.094;-1.628;2023-05-10T17:35:51;22.70;57.90
40738;DHT22;54759;48.094;-1.628;2023-05-10T17:38:52;23.00;58.00
40738;DHT22;54759;48.094;-1.628;2023-05-10T17:41:56;23.10;58.10
40738;DHT22;54759;48.094;-1.628;2023-05-10T17:44:58;23.10;57.90
40738;DHT22;54759;48.094;-1.628;2023-05-10T17:48:00;22.90;57.80
40738;DHT22;54759;48.094;-1.628;2023-05-10T17:51:01;22.80;57.40
40738;DHT22;54759;48.094;-1.628;2023-05-10T17:54:06;23.10;57.40
40738;DHT22;54759;48.094;-1.628;2023-05-10T17:57:10;22.80;57.10
40738;DHT22;54759;48.094;-1.628;2023-05-10T18:00:13;22.60;56.90
40738;DHT22;54759;48.094;-1.628;2023-05-10T18:03:15;23.10;57.10
40738;DHT22;54759;48.094;-1.628;2023-05-10T18:06:17;23.00;58.00
40738;DHT22;54759;48.094;-1.628;2023-05-10T18:09:18;23.00;57.20
40738;DHT22;54759;48.094;-1.628;2023-05-10T18:12:21;22.90;57.30
40738;DHT22;54759;48.094;-1.628;2023-05-10T18:15:26;23.00;57.10
40738;DHT22;54759;48.094;-1.628;2023-05-10T18:18:29;23.10;57.40
40738;DHT22;54759;48.094;-1.628;2023-05-10T18:21:30;23.00;57.40
40738;DHT22;54759;48.094;-1.628;2023-05-10T18:24:32;23.00;57.50
40738;DHT22;54759;48.094;-1.628;2023-05-10T18:27:37;22.60;57.40
40738;DHT22;54759;48.094;-1.628;2023-05-10T18:30:39;22.80;57.50
40738;DHT22;54759;48.094;-1.628;2023-05-10T18:33:42;22.80;57.40
40738;DHT22;54759;48.094;-1.628;2023-05-10T18:36:48;23.00;57.30
40738;DHT22;54759;48.094;-1.628;2023-05-10T18:39:52;22.60;57.60
40738;DHT22;54759;48.094;-1.628;2023-05-10T18:42:53;23.00;56.90
40738;DHT22;54759;48.094;-1.628;2023-05-10T18:45:55;23.00;56.80
40738;DHT22;54759;48.094;-1.628;2023-05-10T18:48:57;23.00;56.90
40738;DHT22;54759;48.094;-1.628;2023-05-10T18:51:58;22.90;56.50
40738;DHT22;54759;48.094;-1.628;2023-05-10T18:55:00;23.00;56.30
40738;DHT22;54759;48.094;-1.628;2023-05-10T18:58:01;22.60;56.30
40738;DHT22;54759;48.094;-1.628;2023-05-10T19:01:04;23.00;56.20
40738;DHT22;54759;48.094;-1.628;2023-05-10T19:04:06;23.00;55.90